sensor_id;sensor_type;location;lat;lon;timestamp;pressure;altitude;pressure_sealevel;temperature;humidity
60437;BME280;46289;51.992;4.498;2023-05-07T00:00:09;101798.16;;;14.15;91.93
60437;BME280;46289;51.992;4.498;2023-05-07T00:02:17;101802.56;;;14.14;91.82
60437;BME280;46289;51.992;4.498;2023-05-07T00:04:23;101807.06;;;14.12;91.50
60437;BME280;46289;51.992;4.498;2023-05-07T00:06:32;101803.56;;;14.12;91.55
60437;BME280;46289;51.992;4.498;2023-05-07T00:08:37;101808.97;;;14.09;92.22
60437;BME280;46289;51.992;4.498;2023-05-07T00:10:45;101810.94;;;14.03;92.07
60437;BME280;46289;51.992;4.498;2023-05-07T00:12:50;101816.91;;;14.09;91.49
60437;BME280;46289;51.992;4.498;2023-05-07T00:14:55;101810.94;;;14.03;92.09
60437;BME280;46289;51.992;4.498;2023-05-07T00:17:01;101811.03;;;14.00;91.80
60437;BME280;46289;51.992;4.498;2023-05-07T00:19:06;101814.59;;;13.99;91.59
60437;BME280;46289;51.992;4.498;2023-05-07T00:21:11;101814.59;;;13.99;91.40
60437;BME280;46289;51.992;4.498;2023-05-07T00:23:16;101813.00;;;13.95;91.69
60437;BME280;46289;51.992;4.498;2023-05-07T00:25:21;101809.56;;;13.93;91.83
60437;BME280;46289;51.992;4.498;2023-05-07T00:27:31;101812.25;;;13.92;91.63
60437;BME280;46289;51.992;4.498;2023-05-07T00:29:38;101807.84;;;13.92;92.15
60437;BME280;46289;51.992;4.498;2023-05-07T00:31:43;101803.53;;;13.90;91.72
60437;BME280;46289;51.992;4.498;2023-05-07T00:33:47;101800.03;;;13.89;91.77
60437;BME280;46289;51.992;4.498;2023-05-07T00:35:53;101806.16;;;13.90;92.43
60437;BME280;46289;51.992;4.498;2023-05-07T00:37:59;101798.38;;;13.87;92.34
60437;BME280;46289;51.992;4.498;2023-05-07T00:40:06;101794.81;;;13.88;91.83
60437;BME280;46289;51.992;4.498;2023-05-07T00:42:11;101799.22;;;13.87;92.33
60437;BME280;46289;51.992;4.498;2023-05-07T00:44:19;101796.78;;;13.82;92.69
60437;BME280;46289;51.992;4.498;2023-05-07T00:46:27;101792.34;;;13.83;92.87
60437;BME280;46289;51.992;4.498;2023-05-07T00:48:32;101799.34;;;13.84;92.20
60437;BME280;46289;51.992;4.498;2023-05-07T00:50:37;101799.41;;;13.82;92.09
60437;BME280;46289;51.992;4.498;2023-05-07T00:52:42;101801.09;;;13.85;92.16
60437;BME280;46289;51.992;4.498;2023-05-07T00:54:48;101789.75;;;13.81;92.34
60437;BME280;46289;51.992;4.498;2023-05-07T00:56:54;101792.34;;;13.83;92.03
60437;BME280;46289;51.992;4.498;2023-05-07T00:59:01;101795.91;;;13.82;92.18
60437;BME280;46289;51.992;4.498;2023-05-07T01:01:09;101794.19;;;13.81;92.49
60437;BME280;46289;51.992;4.498;2023-05-07T01:03:14;101796.88;;;13.79;92.17
60437;BME280;46289;51.992;4.498;2023-05-07T01:05:20;101801.44;;;13.76;92.29
60437;BME280;46289;51.992;4.498;2023-05-07T01:07:28;101797.13;;;13.73;92.16
60437;BME280;46289;51.992;4.498;2023-05-07T01:09:36;101796.13;;;13.76;92.49
60437;BME280;46289;51.992;4.498;2023-05-07T01:11:42;101790.97;;;13.73;92.37
60437;BME280;46289;51.992;4.498;2023-05-07T01:13:47;101785.63;;;13.74;92.30
60437;BME280;46289;51.992;4.498;2023-05-07T01:15:54;101779.44;;;13.75;92.35
60437;BME280;46289;51.992;4.498;2023-05-07T01:18:03;101784.63;;;13.77;92.58
60437;BME280;46289;51.992;4.498;2023-05-07T01:20:10;101783.06;;;13.73;92.48
60437;BME280;46289;51.992;4.498;2023-05-07T01:22:24;101778.72;;;13.72;92.87
60437;BME280;46289;51.992;4.498;2023-05-07T01:24:32;101779.78;;;13.66;92.53
60437;BME280;46289;51.992;4.498;2023-05-07T01:26:38;101771.13;;;13.63;92.65
60437;BME280;46289;51.992;4.498;2023-05-07T01:28:43;101782.50;;;13.65;92.25
60437;BME280;46289;51.992;4.498;2023-05-07T01:30:52;101771.28;;;13.58;92.38
60437;BME280;46289;51.992;4.498;2023-05-07T01:33:00;101779.16;;;13.59;92.61
60437;BME280;46289;51.992;4.498;2023-05-07T01:35:09;101781.81;;;13.59;92.47
60437;BME280;46289;51.992;4.498;2023-05-07T01:37:15;101784.38;;;13.61;92.62
60437;BME280;46289;51.992;4.498;2023-05-07T01:39:25;101776.56;;;13.58;93.05
60437;BME280;46289;51.992;4.498;2023-05-07T01:41:31;101779.16;;;13.59;92.93
60437;BME280;46289;51.992;4.498;2023-05-07T01:43:37;101779.00;;;13.64;92.81
60437;BME280;46289;51.992;4.498;2023-05-07T01:45:42;101774.78;;;13.58;93.28
60437;BME280;46289;51.992;4.498;2023-05-07T01:47:47;101773.06;;;13.57;92.98
60437;BME280;46289;51.992;4.498;2023-05-07T01:49:54;101774.78;;;13.58;93.18
60437;BME280;46289;51.992;4.498;2023-05-07T01:52:01;101771.16;;;13.61;93.03
60437;BME280;46289;51.992;4.498;2023-05-07T01:54:06;101775.38;;;13.67;93.08
60437;BME280;46289;51.992;4.498;2023-05-07T01:56:13;101771.69;;;13.71;92.87
60437;BME280;46289;51.992;4.498;2023-05-07T01:58:20;101774.31;;;13.71;93.22
60437;BME280;46289;51.992;4.498;2023-05-07T02:00:29;101770.81;;;13.70;93.48
60437;BME280;46289;51.992;4.498;2023-05-07T02:02:35;101773.63;;;13.66;93.43
60437;BME280;46289;51.992;4.498;2023-05-07T02:04:40;101771.75;;;13.69;93.47
60437;BME280;46289;51.992;4.498;2023-05-07T02:06:45;101779.72;;;13.68;93.75
60437;BME280;46289;51.992;4.498;2023-05-07T02:08:50;101770.81;;;13.70;93.76
60437;BME280;46289;51.992;4.498;2023-05-07T02:10:55;101769.00;;;13.72;93.71
60437;BME280;46289;51.992;4.498;2023-05-07T02:13:03;101769.97;;;13.70;93.56
60437;BME280;46289;51.992;4.498;2023-05-07T02:15:09;101777.09;;;13.68;94.21
60437;BME280;46289;51.992;4.498;2023-05-07T02:17:16;101772.53;;;13.71;94.33
60437;BME280;46289;51.992;4.498;2023-05-07T02:19:24;101779.69;;;13.69;93.95
60437;BME280;46289;51.992;4.498;2023-05-07T02:21:30;101775.25;;;13.70;94.61
60437;BME280;46289;51.992;4.498;2023-05-07T02:23:35;101778.91;;;13.66;94.32
60437;BME280;46289;51.992;4.498;2023-05-07T02:25:40;101781.56;;;13.66;94.31
60437;BME280;46289;51.992;4.498;2023-05-07T02:27:45;101784.06;;;13.69;94.19
60437;BME280;46289;51.992;4.498;2023-05-07T02:29:52;101778.03;;;13.67;94.30
60437;BME280;46289;51.992;4.498;2023-05-07T02:31:57;101784.31;;;13.63;94.66
60437;BME280;46289;51.992;4.498;2023-05-07T02:34:03;101780.75;;;13.64;94.58
60437;BME280;46289;51.992;4.498;2023-05-07T02:36:09;101782.41;;;13.66;94.80
60437;BME280;46289;51.992;4.498;2023-05-07T02:38:14;101785.81;;;13.70;94.63
60437;BME280;46289;51.992;4.498;2023-05-07T02:40:20;101779.44;;;13.75;94.46
60437;BME280;46289;51.992;4.498;2023-05-07T02:42:25;101780.41;;;13.73;94.92
60437;BME280;46289;51.992;4.498;2023-05-07T02:44:31;101784.72;;;13.75;94.97
60437;BME280;46289;51.992;4.498;2023-05-07T02:46:40;101776.91;;;13.72;95.18
60437;BME280;46289;51.992;4.498;2023-05-07T02:48:45;101776.00;;;13.73;95.17
60437;BME280;46289;51.992;4.498;2023-05-07T02:50:50;101781.16;;;13.76;94.87
60437;BME280;46289;51.992;4.498;2023-05-07T02:52:55;101781.28;;;13.73;95.49
60437;BME280;46289;51.992;4.498;2023-05-07T02:55:01;101780.16;;;13.79;94.99
60437;BME280;46289;51.992;4.498;2023-05-07T02:57:06;101783.63;;;13.81;95.09
60437;BME280;46289;51.992;4.498;2023-05-07T02:59:11;101780.16;;;13.79;94.62
60437;BME280;46289;51.992;4.498;2023-05-07T03:01:16;101781.91;;;13.80;94.97
60437;BME280;46289;51.992;4.498;2023-05-07T03:03:23;101775.94;;;13.75;95.46
60437;BME280;46289;51.992;4.498;2023-05-07T03:05:29;101784.59;;;13.78;95.33
60437;BME280;46289;51.992;4.498;2023-05-07T03:07:34;101780.16;;;13.79;95.06
60437;BME280;46289;51.992;4.498;2023-05-07T03:09:39;101783.50;;;13.84;95.22
60437;BME280;46289;51.992;4.498;2023-05-07T03:11:44;101777.47;;;13.80;95.12
60437;BME280;46289;51.992;4.498;2023-05-07T03:13:50;101781.03;;;13.79;95.21
60437;BME280;46289;51.992;4.498;2023-05-07T03:15:55;101779.31;;;13.78;95.36
60437;BME280;46289;51.992;4.498;2023-05-07T03:18:00;101774.97;;;13.77;95.06
60437;BME280;46289;51.992;4.498;2023-05-07T03:20:09;101773.16;;;13.78;95.31
60437;BME280;46289;51.992;4.498;2023-05-07T03:22:15;101780.16;;;13.79;95.32
60437;BME280;46289;51.992;4.498;2023-05-07T03:24:20;101783.75;;;13.78;95.47
60437;BME280;46289;51.992;4.498;2023-05-07T03:26:25;101780.16;;;13.79;95.16
60437;BME280;46289;51.992;4.498;2023-05-07T03:28:30;101775.75;;;13.79;95.37
60437;BME280;46289;51.992;4.498;2023-05-07T03:30:35;101780.13;;;13.80;95.50
60437;BME280;46289;51.992;4.498;2023-05-07T03:32:40;101780.13;;;13.80;95.29
60437;BME280;46289;51.992;4.498;2023-05-07T03:34:45;101776.66;;;13.78;95.55
60437;BME280;46289;51.992;4.498;2023-05-07T03:36:52;101780.94;;;13.82;95.33
60437;BME280;46289;51.992;4.498;2023-05-07T03:38:57;101777.53;;;13.79;95.36
60437;BME280;46289;51.992;4.498;2023-05-07T03:41:02;101781.81;;;13.81;95.42
60437;BME280;46289;51.992;4.498;2023-05-07T03:43:07;101767.59;;;13.86;95.26
60437;BME280;46289;51.992;4.498;2023-05-07T03:45:13;101772.88;;;13.86;94.67
60437;BME280;46289;51.992;4.498;2023-05-07T03:47:21;101776.41;;;13.84;95.11
60437;BME280;46289;51.992;4.498;2023-05-07T03:49:26;101780.00;;;13.83;95.03
60437;BME280;46289;51.992;4.498;2023-05-07T03:51:31;101779.25;;;13.80;95.14
60437;BME280;46289;51.992;4.498;2023-05-07T03:53:40;101780.16;;;13.79;95.25
60437;BME280;46289;51.992;4.498;2023-05-07T03:55:45;101778.22;;;13.84;95.37
60437;BME280;46289;51.992;4.498;2023-05-07T03:57:51;101782.63;;;13.83;95.12
60437;BME280;46289;51.992;4.498;2023-05-07T03:59:55;101779.06;;;13.84;95.30
60437;BME280;46289;51.992;4.498;2023-05-07T04:02:01;101782.69;;;13.82;95.26
60437;BME280;46289;51.992;4.498;2023-05-07T04:04:06;101784.59;;;13.78;95.18
60437;BME280;46289;51.992;4.498;2023-05-07T04:06:11;101786.44;;;13.76;95.41
60437;BME280;46289;51.992;4.498;2023-05-07T04:08:16;101790.72;;;13.79;95.29
60437;BME280;46289;51.992;4.498;2023-05-07T04:10:25;101788.91;;;13.81;95.19
60437;BME280;46289;51.992;4.498;2023-05-07T04:12:33;101792.47;;;13.80;94.97
60437;BME280;46289;51.992;4.498;2023-05-07T04:14:38;101787.78;;;13.87;94.75
60437;BME280;46289;51.992;4.498;2023-05-07T04:16:43;101789.63;;;13.84;95.06
60437;BME280;46289;51.992;4.498;2023-05-07T04:18:49;101790.69;;;13.80;95.10
60437;BME280;46289;51.992;4.498;2023-05-07T04:20:56;101786.13;;;13.84;94.94
60437;BME280;46289;51.992;4.498;2023-05-07T04:23:01;101788.91;;;13.81;95.00
60437;BME280;46289;51.992;4.498;2023-05-07T04:25:08;101787.19;;;13.80;94.89
60437;BME280;46289;51.992;4.498;2023-05-07T04:27:16;101795.13;;;13.80;94.89
60437;BME280;46289;51.992;4.498;2023-05-07T04:29:22;101792.53;;;13.78;94.95
60437;BME280;46289;51.992;4.498;2023-05-07T04:31:27;101796.81;;;13.81;94.94
60437;BME280;46289;51.992;4.498;2023-05-07T04:33:32;101790.50;;;13.85;94.71
60437;BME280;46289;51.992;4.498;2023-05-07T04:35:38;101790.50;;;13.85;94.78
60437;BME280;46289;51.992;4.498;2023-05-07T04:37:43;101791.50;;;13.82;94.87
60437;BME280;46289;51.992;4.498;2023-05-07T04:39:48;101793.25;;;13.82;94.86
60437;BME280;46289;51.992;4.498;2023-05-07T04:41:56;101788.78;;;13.84;95.02
60437;BME280;46289;51.992;4.498;2023-05-07T04:44:05;101799.34;;;13.84;95.23
60437;BME280;46289;51.992;4.498;2023-05-07T04:46:11;101801.09;;;13.85;95.17
60437;BME280;46289;51.992;4.498;2023-05-07T04:48:16;101793.22;;;13.83;94.82
60437;BME280;46289;51.992;4.498;2023-05-07T04:50:30;101799.34;;;13.84;95.03
60437;BME280;46289;51.992;4.498;2023-05-07T04:52:35;101801.84;;;13.87;94.87
60437;BME280;46289;51.992;4.498;2023-05-07T04:54:40;101793.88;;;13.89;94.95
60437;BME280;46289;51.992;4.498;2023-05-07T04:56:45;101793.09;;;13.87;95.31
60437;BME280;46289;51.992;4.498;2023-05-07T04:58:50;101793.03;;;13.88;95.12
60437;BME280;46289;51.992;4.498;2023-05-07T05:01:01;101798.13;;;13.93;95.12
60437;BME280;46289;51.992;4.498;2023-05-07T05:03:07;101795.44;;;13.94;95.01
60437;BME280;46289;51.992;4.498;2023-05-07T05:05:12;101805.06;;;13.95;95.07
60437;BME280;46289;51.992;4.498;2023-05-07T05:07:17;101799.84;;;13.94;94.80
60437;BME280;46289;51.992;4.498;2023-05-07T05:09:22;101796.28;;;13.95;94.95
60437;BME280;46289;51.992;4.498;2023-05-07T05:11:27;101796.78;;;14.04;94.89
60437;BME280;46289;51.992;4.498;2023-05-07T05:13:32;101811.03;;;14.00;94.81
60437;BME280;46289;51.992;4.498;2023-05-07T05:15:37;101806.69;;;13.99;94.65
60437;BME280;46289;51.992;4.498;2023-05-07T05:17:45;101814.44;;;14.04;94.63
60437;BME280;46289;51.992;4.498;2023-05-07T05:19:50;101811.78;;;14.04;94.43
60437;BME280;46289;51.992;4.498;2023-05-07T05:21:55;101810.56;;;14.13;94.66
60437;BME280;46289;51.992;4.498;2023-05-07T05:24:03;101815.72;;;14.16;94.39
60437;BME280;46289;51.992;4.498;2023-05-07T05:26:08;101810.31;;;14.19;94.33
60437;BME280;46289;51.992;4.498;2023-05-07T05:28:13;101819.16;;;14.18;94.18
60437;BME280;46289;51.992;4.498;2023-05-07T05:30:18;101817.31;;;14.20;94.58
60437;BME280;46289;51.992;4.498;2023-05-07T05:32:23;101827.72;;;14.24;94.19
60437;BME280;46289;51.992;4.498;2023-05-07T05:34:33;101815.22;;;14.28;94.14
60437;BME280;46289;51.992;4.498;2023-05-07T05:36:38;101818.72;;;14.28;93.98
60437;BME280;46289;51.992;4.498;2023-05-07T05:38:44;101827.28;;;14.35;94.01
60437;BME280;46289;51.992;4.498;2023-05-07T05:40:49;101832.44;;;14.38;93.96
60437;BME280;46289;51.992;4.498;2023-05-07T05:42:57;101832.44;;;14.38;93.81
60437;BME280;46289;51.992;4.498;2023-05-07T05:45:02;101833.03;;;14.45;93.96
60437;BME280;46289;51.992;4.498;2023-05-07T05:47:07;101840.75;;;14.51;93.89
60437;BME280;46289;51.992;4.498;2023-05-07T05:49:12;101837.03;;;14.57;93.83
60437;BME280;46289;51.992;4.498;2023-05-07T05:51:20;101832.31;;;14.63;93.52
60437;BME280;46289;51.992;4.498;2023-05-07T05:53:25;101839.28;;;14.66;93.10
60437;BME280;46289;51.992;4.498;2023-05-07T05:55:31;101838.38;;;14.67;93.16
60437;BME280;46289;51.992;4.498;2023-05-07T05:57:38;101847.34;;;14.63;93.02
60437;BME280;46289;51.992;4.498;2023-05-07T05:59:43;101845.63;;;14.62;92.84
60437;BME280;46289;51.992;4.498;2023-05-07T06:01:49;101846.63;;;14.59;93.26
60437;BME280;46289;51.992;4.498;2023-05-07T06:03:54;101847.22;;;14.66;93.47
60437;BME280;46289;51.992;4.498;2023-05-07T06:06:00;101839.81;;;14.74;93.09
60437;BME280;46289;51.992;4.498;2023-05-07T06:08:08;101853.03;;;14.74;93.31
60437;BME280;46289;51.992;4.498;2023-05-07T06:10:13;101844.88;;;14.80;92.93
60437;BME280;46289;51.992;4.498;2023-05-07T06:12:20;101844.72;;;14.83;91.82
60437;BME280;46289;51.992;4.498;2023-05-07T06:14:25;101841.16;;;14.84;92.07
60437;BME280;46289;51.992;4.498;2023-05-07T06:16:32;101843.56;;;14.90;91.62
60437;BME280;46289;51.992;4.498;2023-05-07T06:18:40;101848.28;;;14.82;92.65
60437;BME280;46289;51.992;4.498;2023-05-07T06:20:47;101840.34;;;14.82;92.12
60437;BME280;46289;51.992;4.498;2023-05-07T06:22:52;101837.47;;;14.88;92.09
60437;BME280;46289;51.992;4.498;2023-05-07T06:25:00;101844.41;;;14.91;92.30
60437;BME280;46289;51.992;4.498;2023-05-07T06:27:05;101836.59;;;14.88;91.73
60437;BME280;46289;51.992;4.498;2023-05-07T06:29:10;101841.00;;;14.87;91.68
60437;BME280;46289;51.992;4.498;2023-05-07T06:31:16;101842.66;;;14.90;91.88
60437;BME280;46289;51.992;4.498;2023-05-07T06:33:22;101839.56;;;15.01;91.65
60437;BME280;46289;51.992;4.498;2023-05-07T06:35:27;101837.19;;;15.15;92.04
60437;BME280;46289;51.992;4.498;2023-05-07T06:37:32;101840.34;;;15.44;90.38
60437;BME280;46289;51.992;4.498;2023-05-07T06:39:40;101844.50;;;15.49;90.74
60437;BME280;46289;51.992;4.498;2023-05-07T06:41:47;101848.38;;;15.61;90.30
60437;BME280;46289;51.992;4.498;2023-05-07T06:43:53;101843.22;;;15.58;90.49
60437;BME280;46289;51.992;4.498;2023-05-07T06:45:59;101846.84;;;15.55;90.56
60437;BME280;46289;51.992;4.498;2023-05-07T06:48:05;101847.25;;;15.67;89.81
60437;BME280;46289;51.992;4.498;2023-05-07T06:50:10;101845.28;;;15.72;88.93
60437;BME280;46289;51.992;4.498;2023-05-07T06:52:15;101838.41;;;15.87;89.22
60437;BME280;46289;51.992;4.498;2023-05-07T06:54:20;101839.53;;;16.00;88.49
60437;BME280;46289;51.992;4.498;2023-05-07T06:56:25;101841.19;;;15.84;88.49
60437;BME280;46289;51.992;4.498;2023-05-07T06:58:34;101847.78;;;15.94;88.22
60437;BME280;46289;51.992;4.498;2023-05-07T07:00:39;101850.09;;;15.83;88.47
60437;BME280;46289;51.992;4.498;2023-05-07T07:02:44;101844.84;;;15.61;88.23
60437;BME280;46289;51.992;4.498;2023-05-07T07:04:49;101850.91;;;15.64;88.53
60437;BME280;46289;51.992;4.498;2023-05-07T07:06:54;101852.91;;;15.59;88.52
60437;BME280;46289;51.992;4.498;2023-05-07T07:09:00;101853.16;;;15.73;88.61
60437;BME280;46289;51.992;4.498;2023-05-07T07:11:05;101846.91;;;15.74;88.76
60437;BME280;46289;51.992;4.498;2023-05-07T07:13:10;101847.94;;;15.72;88.81
60437;BME280;46289;51.992;4.498;2023-05-07T07:15:19;101846.47;;;16.02;87.61
60437;BME280;46289;51.992;4.498;2023-05-07T07:17:26;101847.19;;;16.61;86.30
60437;BME280;46289;51.992;4.498;2023-05-07T07:19:31;101847.34;;;16.76;85.18
60437;BME280;46289;51.992;4.498;2023-05-07T07:21:36;101847.53;;;17.25;84.00
60437;BME280;46289;51.992;4.498;2023-05-07T07:23:41;101846.75;;;17.72;82.04
60437;BME280;46289;51.992;4.498;2023-05-07T07:25:46;101852.47;;;17.48;81.85
60437;BME280;46289;51.992;4.498;2023-05-07T07:27:51;101856.41;;;17.41;83.21
60437;BME280;46289;51.992;4.498;2023-05-07T07:29:56;101858.44;;;17.36;82.80
60437;BME280;46289;51.992;4.498;2023-05-07T07:32:04;101849.28;;;17.42;83.00
60437;BME280;46289;51.992;4.498;2023-05-07T07:34:09;101853.22;;;17.50;81.68
60437;BME280;46289;51.992;4.498;2023-05-07T07:36:14;101852.16;;;17.70;80.43
60437;BME280;46289;51.992;4.498;2023-05-07T07:38:19;101856.16;;;17.79;80.33
60437;BME280;46289;51.992;4.498;2023-05-07T07:40:25;101859.72;;;17.78;80.56
60437;BME280;46289;51.992;4.498;2023-05-07T07:42:30;101857.00;;;17.80;80.74
60437;BME280;46289;51.992;4.498;2023-05-07T07:44:35;101860.38;;;17.66;80.80
60437;BME280;46289;51.992;4.498;2023-05-07T07:46:41;101862.31;;;17.46;80.30
60437;BME280;46289;51.992;4.498;2023-05-07T07:48:49;101859.56;;;17.48;80.84
60437;BME280;46289;51.992;4.498;2023-05-07T07:50:55;101855.59;;;17.57;80.85
60437;BME280;46289;51.992;4.498;2023-05-07T07:53:00;101848.97;;;17.64;81.01
60437;BME280;46289;51.992;4.498;2023-05-07T07:55:06;101856.09;;;17.81;80.79
60437;BME280;46289;51.992;4.498;2023-05-07T07:57:11;101857.28;;;17.91;79.36
60437;BME280;46289;51.992;4.498;2023-05-07T07:59:16;101853.19;;;18.01;79.20
60437;BME280;46289;51.992;4.498;2023-05-07T08:01:22;101856.16;;;17.79;79.01
60437;BME280;46289;51.992;4.498;2023-05-07T08:03:28;101855.06;;;17.83;79.53
60437;BME280;46289;51.992;4.498;2023-05-07T08:05:37;101855.75;;;18.03;79.75
60437;BME280;46289;51.992;4.498;2023-05-07T08:07:42;101855.97;;;18.30;79.06
60437;BME280;46289;51.992;4.498;2023-05-07T08:09:48;101855.41;;;18.40;78.79
60437;BME280;46289;51.992;4.498;2023-05-07T08:11:53;101851.97;;;18.38;78.36
60437;BME280;46289;51.992;4.498;2023-05-07T08:13:59;101854.69;;;18.53;77.48
60437;BME280;46289;51.992;4.498;2023-05-07T08:16:05;101858.28;;;18.52;76.77
60437;BME280;46289;51.992;4.498;2023-05-07T08:18:10;101867.06;;;18.54;76.79
60437;BME280;46289;51.992;4.498;2023-05-07T08:20:15;101863.84;;;18.79;76.30
60437;BME280;46289;51.992;4.498;2023-05-07T08:22:23;101866.25;;;18.68;76.60
60437;BME280;46289;51.992;4.498;2023-05-07T08:24:28;101870.97;;;18.62;76.68
60437;BME280;46289;51.992;4.498;2023-05-07T08:26:33;101878.88;;;18.64;76.66
60437;BME280;46289;51.992;4.498;2023-05-07T08:28:41;101877.34;;;18.76;76.54
60437;BME280;46289;51.992;4.498;2023-05-07T08:30:46;101871.66;;;18.82;76.78
60437;BME280;46289;51.992;4.498;2023-05-07T08:32:51;101873.38;;;18.83;76.86
60437;BME280;46289;51.992;4.498;2023-05-07T08:34:56;101879.56;;;18.83;75.39
60437;BME280;46289;51.992;4.498;2023-05-07T08:37:01;101880.78;;;18.78;76.73
60437;BME280;46289;51.992;4.498;2023-05-07T08:39:09;101878.22;;;19.06;75.84
60437;BME280;46289;51.992;4.498;2023-05-07T08:41:14;101881.16;;;19.16;75.37
60437;BME280;46289;51.992;4.498;2023-05-07T08:43:19;101886.09;;;19.08;74.67
60437;BME280;46289;51.992;4.498;2023-05-07T08:45:26;101882.78;;;19.19;74.40
60437;BME280;46289;51.992;4.498;2023-05-07T08:47:38;101879.59;;;18.98;75.03
60437;BME280;46289;51.992;4.498;2023-05-07T08:49:44;101886.59;;;19.29;73.33
60437;BME280;46289;51.992;4.498;2023-05-07T08:51:50;101881.72;;;19.21;73.87
60437;BME280;46289;51.992;4.498;2023-05-07T08:53:55;101881.00;;;19.48;73.00
60437;BME280;46289;51.992;4.498;2023-05-07T08:56:05;101882.78;;;19.78;73.61
60437;BME280;46289;51.992;4.498;2023-05-07T08:58:10;101880.25;;;19.60;72.60
60437;BME280;46289;51.992;4.498;2023-05-07T09:00:16;101884.03;;;19.56;71.88
60437;BME280;46289;51.992;4.498;2023-05-07T09:02:21;101883.25;;;19.70;72.74
60437;BME280;46289;51.992;4.498;2023-05-07T09:04:27;101878.34;;;20.20;71.38
60437;BME280;46289;51.992;4.498;2023-05-07T09:06:33;101885.00;;;20.12;70.01
60437;BME280;46289;51.992;4.498;2023-05-07T09:08:39;101885.97;;;19.97;70.66
60437;BME280;46289;51.992;4.498;2023-05-07T09:10:44;101892.72;;;20.17;70.59
60437;BME280;46289;51.992;4.498;2023-05-07T09:12:52;101887.72;;;20.67;68.39
60437;BME280;46289;51.992;4.498;2023-05-07T09:15:00;101893.78;;;20.42;68.67
60437;BME280;46289;51.992;4.498;2023-05-07T09:17:05;101887.91;;;20.64;69.44
60437;BME280;46289;51.992;4.498;2023-05-07T09:19:10;101885.94;;;20.67;69.06
60437;BME280;46289;51.992;4.498;2023-05-07T09:21:15;101889.66;;;20.65;68.28
60437;BME280;46289;51.992;4.498;2023-05-07T09:23:20;101897.13;;;20.59;68.54
60437;BME280;46289;51.992;4.498;2023-05-07T09:25:30;101896.69;;;20.66;68.29
60437;BME280;46289;51.992;4.498;2023-05-07T09:27:35;101891.38;;;20.51;67.40
60437;BME280;46289;51.992;4.498;2023-05-07T09:29:46;101889.56;;;20.52;67.15
60437;BME280;46289;51.992;4.498;2023-05-07T09:31:51;101898.72;;;20.48;68.01
60437;BME280;46289;51.992;4.498;2023-05-07T09:33:57;101892.19;;;19.83;68.90
60437;BME280;46289;51.992;4.498;2023-05-07T09:36:03;101891.13;;;20.00;69.14
60437;BME280;46289;51.992;4.498;2023-05-07T09:38:08;101893.28;;;20.22;69.02
60437;BME280;46289;51.992;4.498;2023-05-07T09:40:20;101901.31;;;19.79;68.63
60437;BME280;46289;51.992;4.498;2023-05-07T09:42:25;101893.72;;;20.29;68.51
60437;BME280;46289;51.992;4.498;2023-05-07T09:44:31;101895.16;;;20.61;66.65
60437;BME280;46289;51.992;4.498;2023-05-07T09:46:43;101896.78;;;20.91;66.29
60437;BME280;46289;51.992;4.498;2023-05-07T09:48:48;101894.88;;;20.93;65.86
60437;BME280;46289;51.992;4.498;2023-05-07T09:50:55;101898.00;;;21.13;65.55
60437;BME280;46289;51.992;4.498;2023-05-07T09:53:03;101886.19;;;20.90;64.57
60437;BME280;46289;51.992;4.498;2023-05-07T09:55:08;101896.00;;;20.89;65.06
60437;BME280;46289;51.992;4.498;2023-05-07T09:57:15;101898.25;;;20.95;65.29
60437;BME280;46289;51.992;4.498;2023-05-07T09:59:24;101906.41;;;20.67;65.78
60437;BME280;46289;51.992;4.498;2023-05-07T10:01:31;101908.44;;;21.03;65.08
60437;BME280;46289;51.992;4.498;2023-05-07T10:03:40;101905.13;;;20.99;65.18
60437;BME280;46289;51.992;4.498;2023-05-07T10:05:46;101914.09;;;20.86;65.75
60437;BME280;46289;51.992;4.498;2023-05-07T10:07:53;101907.72;;;21.14;64.42
60437;BME280;46289;51.992;4.498;2023-05-07T10:10:06;101901.47;;;21.53;63.39
60437;BME280;46289;51.992;4.498;2023-05-07T10:12:11;101899.75;;;21.78;63.23
60437;BME280;46289;51.992;4.498;2023-05-07T10:14:20;101905.72;;;21.94;62.16
60437;BME280;46289;51.992;4.498;2023-05-07T10:16:25;101900.97;;;21.98;60.64
60437;BME280;46289;51.992;4.498;2023-05-07T10:18:32;101907.16;;;22.11;61.50
60437;BME280;46289;51.992;4.498;2023-05-07T10:20:41;101906.19;;;22.25;59.06
60437;BME280;46289;51.992;4.498;2023-05-07T10:22:48;101893.72;;;22.85;58.76
60437;BME280;46289;51.992;4.498;2023-05-07T10:24:57;101903.19;;;22.53;57.08
60437;BME280;46289;51.992;4.498;2023-05-07T10:27:07;101898.63;;;22.43;58.56
60437;BME280;46289;51.992;4.498;2023-05-07T10:29:21;101897.16;;;22.39;57.25
60437;BME280;46289;51.992;4.498;2023-05-07T10:31:44;101895.88;;;22.31;57.63
60437;BME280;46289;51.992;4.498;2023-05-07T10:33:53;101905.44;;;22.35;58.11
60437;BME280;46289;51.992;4.498;2023-05-07T10:36:02;101901.28;;;22.19;58.49
60437;BME280;46289;51.992;4.498;2023-05-07T10:38:09;101911.34;;;22.15;58.83
60437;BME280;46289;51.992;4.498;2023-05-07T10:40:15;101903.41;;;22.26;58.65
60437;BME280;46289;51.992;4.498;2023-05-07T10:42:25;101905.34;;;22.24;59.08
60437;BME280;46289;51.992;4.498;2023-05-07T10:44:33;101906.03;;;21.89;59.75
60437;BME280;46289;51.992;4.498;2023-05-07T10:46:39;101905.72;;;21.81;57.84
60437;BME280;46289;51.992;4.498;2023-05-07T10:49:11;101906.69;;;21.80;59.20
60437;BME280;46289;51.992;4.498;2023-05-07T10:51:22;101919.06;;;22.07;56.84
60437;BME280;46289;51.992;4.498;2023-05-07T10:53:27;101911.38;;;22.02;57.25
60437;BME280;46289;51.992;4.498;2023-05-07T10:55:33;101908.63;;;21.65;58.40
60437;BME280;46289;51.992;4.498;2023-05-07T10:57:38;101915.25;;;21.85;57.74
60437;BME280;46289;51.992;4.498;2023-05-07T10:59:43;101915.03;;;21.88;58.31